createdAt,value
2024-05-09T00:02:03.731Z,70.22
2024-05-09T00:04:29.846Z,70.57
2024-05-09T00:06:56.015Z,70.45
2024-05-09T00:09:22.159Z,70.29
2024-05-09T00:11:48.378Z,69.90
2024-05-09T00:14:14.528Z,69.63
2024-05-09T00:16:40.618Z,69.51
2024-05-09T00:19:06.834Z,69.70
2024-05-09T00:21:32.941Z,69.56
2024-05-09T00:23:58.968Z,70.21
2024-05-09T00:26:25.138Z,70.04
2024-05-09T00:28:51.361Z,70.17
2024-05-09T00:31:17.587Z,70.11
2024-05-09T00:33:43.832Z,69.49
2024-05-09T00:36:09.961Z,69.12
2024-05-09T00:38:36.182Z,69.04
2024-05-09T00:41:02.403Z,69.14
2024-05-09T00:43:28.463Z,68.63
2024-05-09T00:45:56.814Z,68.79
2024-05-09T00:48:23.146Z,68.97
2024-05-09T00:50:50.317Z,69.72
2024-05-09T00:53:18.330Z,70.27
2024-05-09T00:55:45.955Z,69.70
2024-05-09T00:58:15.855Z,69.90
2024-05-09T01:00:42.796Z,70.54
2024-05-09T01:03:11.627Z,69.65
2024-05-09T01:05:39.833Z,69.81
2024-05-09T01:08:07.195Z,69.65
2024-05-09T01:10:35.255Z,70.00
2024-05-09T01:13:03.775Z,69.74
2024-05-09T01:15:29.992Z,70.30
2024-05-09T01:17:57.114Z,69.65
2024-05-09T01:20:32.103Z,70.29
2024-05-09T01:23:07.053Z,69.48
2024-05-09T01:25:33.227Z,69.52
2024-05-09T01:27:59.301Z,69.32
2024-05-09T01:30:31.935Z,69.54
2024-05-09T01:33:01.718Z,69.75
2024-05-09T01:35:28.087Z,70.37
2024-05-09T01:37:54.193Z,70.24
2024-05-09T01:40:25.361Z,70.30
2024-05-09T01:43:00.014Z,70.03
2024-05-09T01:45:26.046Z,70.27
2024-05-09T01:47:52.344Z,70.31
2024-05-09T01:50:22.542Z,70.45
2024-05-09T01:52:54.962Z,70.71
2024-05-09T01:55:21.184Z,70.45
2024-05-09T01:57:47.212Z,69.85
2024-05-09T02:02:45.051Z,70.05
2024-05-09T02:05:11.411Z,70.14
2024-05-09T02:07:37.626Z,70.67
2024-05-09T02:10:10.827Z,70.74
2024-05-09T02:12:42.171Z,70.74
2024-05-09T02:15:08.400Z,71.05
2024-05-09T02:17:34.600Z,70.93
2024-05-09T02:20:00.843Z,71.00
2024-05-09T02:22:26.907Z,71.37
2024-05-09T02:24:52.986Z,70.79
2024-05-09T02:27:19.039Z,70.81
2024-05-09T02:29:45.125Z,70.46
2024-05-09T02:32:11.252Z,70.05
2024-05-09T02:34:37.455Z,70.53
2024-05-09T02:37:03.647Z,70.05
2024-05-09T02:39:29.704Z,70.49
2024-05-09T02:41:55.721Z,70.90
2024-05-09T02:44:21.769Z,71.05
2024-05-09T02:46:47.861Z,70.58
2024-05-09T02:49:15.448Z,70.95
2024-05-09T02:51:41.623Z,71.12
2024-05-09T02:54:09.363Z,71.68
2024-05-09T02:56:35.494Z,71.14
2024-05-09T02:59:01.688Z,71.32
2024-05-09T03:01:27.773Z,70.79
2024-05-09T03:03:53.948Z,71.15
2024-05-09T03:06:20.101Z,71.03
2024-05-09T03:08:48.893Z,70.86
2024-05-09T03:11:24.930Z,70.22
2024-05-09T03:13:52.311Z,70.80
2024-05-09T03:16:18.786Z,70.72
2024-05-09T03:18:45.340Z,71.08
2024-05-09T03:21:11.591Z,70.57
2024-05-09T03:23:41.654Z,70.15
2024-05-09T03:26:16.012Z,68.85
2024-05-09T03:28:42.997Z,65.20
2024-05-09T03:31:09.115Z,67.26
2024-05-09T03:33:35.577Z,67.23
2024-05-09T03:36:04.243Z,66.93
2024-05-09T03:38:36.729Z,66.93
2024-05-09T03:41:02.992Z,67.07
2024-05-09T03:43:29.057Z,66.39
2024-05-09T03:45:55.373Z,66.29
2024-05-09T03:48:21.726Z,66.23
2024-05-09T03:50:48.105Z,66.03
2024-05-09T03:53:15.207Z,65.13
2024-05-09T03:55:41.354Z,64.38
2024-05-09T03:58:07.679Z,63.34
2024-05-09T04:00:38.216Z,65.55
2024-05-09T04:03:07.735Z,65.34
2024-05-09T04:05:37.263Z,64.06
2024-05-09T04:08:03.507Z,59.40
2024-05-09T04:10:33.402Z,61.09
2024-05-09T04:13:01.207Z,61.26
2024-05-09T04:15:27.340Z,62.54
2024-05-09T04:17:53.554Z,62.92
2024-05-09T04:20:29.277Z,60.18
2024-05-09T04:23:03.805Z,58.10
2024-05-09T04:25:31.394Z,58.94
2024-05-09T04:27:57.478Z,58.76
2024-05-09T04:30:34.281Z,61.05
2024-05-09T04:33:05.479Z,60.96
2024-05-09T04:35:31.751Z,59.82
2024-05-09T04:37:57.871Z,59.48
2024-05-09T04:40:31.238Z,54.86
2024-05-09T04:43:00.951Z,53.10
2024-05-09T04:45:27.039Z,53.32
2024-05-09T04:47:54.024Z,54.80
2024-05-09T04:50:29.343Z,55.78
2024-05-09T04:53:01.860Z,53.60
2024-05-09T04:55:28.156Z,53.14
2024-05-09T04:57:54.204Z,54.23
2024-05-09T05:00:28.641Z,52.94
2024-05-09T05:03:05.100Z,51.04
2024-05-09T05:05:31.569Z,53.17
2024-05-09T05:07:57.760Z,51.14
2024-05-09T05:10:32.958Z,51.67
2024-05-09T05:13:19.525Z,54.45
2024-05-09T05:15:47.319Z,53.32
2024-05-09T05:18:17.050Z,50.04
2024-05-09T05:20:43.783Z,49.56
2024-05-09T05:23:12.658Z,47.07
2024-05-09T05:25:39.430Z,48.76
2024-05-09T05:28:09.605Z,45.12
2024-05-09T05:30:37.360Z,45.54
2024-05-09T05:33:04.911Z,45.31
2024-05-09T05:35:31.140Z,45.73
2024-05-09T05:37:57.317Z,47.62
2024-05-09T05:40:32.209Z,47.09
2024-05-09T05:43:05.717Z,45.79
2024-05-09T05:45:31.829Z,46.04
2024-05-09T05:48:00.428Z,48.54
2024-05-09T05:50:32.966Z,42.42
2024-05-09T05:53:02.861Z,45.13
2024-05-09T05:55:29.016Z,46.45
2024-05-09T05:57:55.083Z,48.07
2024-05-09T06:00:29.101Z,44.19
2024-05-09T06:03:01.584Z,48.40
2024-05-09T06:05:28.184Z,45.25
2024-05-09T06:07:54.355Z,45.92
2024-05-09T06:10:25.494Z,43.11
2024-05-09T06:12:55.565Z,42.47
2024-05-09T06:15:21.610Z,43.28
2024-05-09T06:17:47.737Z,43.83
2024-05-09T06:20:20.572Z,41.28
2024-05-09T06:22:52.987Z,41.36
2024-05-09T06:25:19.084Z,44.14
2024-05-09T06:27:45.190Z,43.29
2024-05-09T06:30:24.817Z,41.81
2024-05-09T06:32:55.776Z,39.61
2024-05-09T06:35:21.994Z,37.13
2024-05-09T06:37:48.109Z,37.15
2024-05-09T06:40:17.483Z,36.85
2024-05-09T06:42:43.816Z,36.66
2024-05-09T06:45:09.867Z,36.68
2024-05-09T06:47:35.974Z,37.55
2024-05-09T06:50:02.810Z,37.24
2024-05-09T06:52:29.682Z,37.51
2024-05-09T06:54:56.003Z,37.92
2024-05-09T06:57:22.642Z,37.64
2024-05-09T06:59:48.699Z,38.19
2024-05-09T07:02:14.853Z,37.89
2024-05-09T07:04:41.059Z,38.50
2024-05-09T07:07:08.794Z,37.67
2024-05-09T07:09:34.848Z,37.63
2024-05-09T07:12:01.006Z,37.96
2024-05-09T07:14:27.379Z,37.75
2024-05-09T07:16:53.534Z,37.44
2024-05-09T07:19:19.782Z,37.32
2024-05-09T07:21:45.965Z,38.93
2024-05-09T07:24:11.996Z,38.49
2024-05-09T07:26:38.245Z,38.49
2024-05-09T07:29:04.391Z,38.90
2024-05-09T07:31:30.879Z,40.04
2024-05-09T07:33:57.121Z,41.56
2024-05-09T07:36:23.328Z,38.70
2024-05-09T07:38:49.440Z,39.00
2024-05-09T07:41:15.543Z,39.48
2024-05-09T07:43:43.749Z,38.98
2024-05-09T07:47:14.053Z,42.08
2024-05-09T07:50:35.602Z,42.21
2024-05-09T07:54:13.308Z,40.21
2024-05-09T07:56:39.849Z,40.10
2024-05-09T07:59:06.018Z,39.75
2024-05-09T08:01:32.192Z,41.13
2024-05-09T08:03:58.590Z,42.43
2024-05-09T08:06:25.328Z,40.49
2024-05-09T08:08:51.853Z,40.83
2024-05-09T08:11:19.161Z,41.44
2024-05-09T08:13:45.570Z,41.93
2024-05-09T08:16:13.755Z,41.62
2024-05-09T08:18:40.219Z,39.29
2024-05-09T08:21:06.390Z,40.34
2024-05-09T08:23:32.508Z,39.19
2024-05-09T08:25:58.610Z,39.40
2024-05-09T08:28:24.707Z,38.10
2024-05-09T08:30:50.985Z,38.68
2024-05-09T08:33:17.222Z,38.06
2024-05-09T08:35:43.405Z,39.51
2024-05-09T08:38:09.493Z,40.74
2024-05-09T08:40:37.411Z,41.38
2024-05-09T08:43:09.032Z,40.52
2024-05-09T08:45:38.213Z,39.94
2024-05-09T08:48:07.985Z,39.09
2024-05-09T08:50:38.982Z,37.53
2024-05-09T09:00:42.619Z,38.23
2024-05-09T09:03:10.898Z,38.79
2024-05-09T09:05:38.800Z,38.81
2024-05-09T09:08:07.141Z,39.26
2024-05-09T09:10:33.643Z,38.64
2024-05-09T09:13:04.007Z,39.33
2024-05-09T09:15:30.158Z,37.93
2024-05-09T09:17:58.287Z,37.95
2024-05-09T09:20:35.623Z,38.26
2024-05-09T09:23:03.593Z,38.05
2024-05-09T09:25:29.938Z,38.26
2024-05-09T09:27:57.846Z,37.86
2024-05-09T09:30:34.612Z,36.43
2024-05-09T09:33:03.933Z,36.92
2024-05-09T09:35:30.092Z,37.60
2024-05-09T09:37:59.839Z,36.56
2024-05-09T09:40:32.169Z,34.08
2024-05-09T09:43:01.087Z,35.09
2024-05-09T09:45:31.943Z,34.95
2024-05-09T09:47:58.812Z,34.97
2024-05-09T09:50:33.244Z,35.38
2024-05-09T09:53:00.834Z,33.61
2024-05-09T09:55:27.896Z,32.56
2024-05-09T09:57:55.387Z,34.91
2024-05-09T10:00:27.408Z,33.74
2024-05-09T10:02:58.540Z,32.90
2024-05-09T10:05:25.048Z,34.63
2024-05-09T10:07:52.755Z,32.76
2024-05-09T10:10:30.037Z,33.75
2024-05-09T10:12:59.505Z,32.80
2024-05-09T10:15:25.654Z,31.44
2024-05-09T10:17:51.817Z,31.61
2024-05-09T10:20:21.994Z,32.29
2024-05-09T10:22:51.605Z,33.15
2024-05-09T10:25:17.777Z,33.06
2024-05-09T10:27:54.987Z,31.90
2024-05-09T10:30:29.769Z,30.39
2024-05-09T10:33:01.734Z,30.92
2024-05-09T10:35:31.485Z,32.33
2024-05-09T10:38:05.407Z,31.40
2024-05-09T10:40:32.139Z,31.26
2024-05-09T10:43:01.969Z,32.26
2024-05-09T10:45:29.613Z,32.64
2024-05-09T10:47:55.854Z,31.94
2024-05-09T10:50:25.641Z,32.04
2024-05-09T10:52:55.027Z,31.31
2024-05-09T10:55:21.394Z,32.06
2024-05-09T10:57:47.783Z,33.14
2024-05-09T11:00:23.209Z,32.57
2024-05-09T11:02:56.191Z,31.19
2024-05-09T11:05:23.733Z,32.14
2024-05-09T11:07:50.496Z,31.16
2024-05-09T11:10:24.404Z,31.49
2024-05-09T11:12:53.555Z,31.61
2024-05-09T11:15:19.616Z,31.48
2024-05-09T11:17:45.806Z,31.51
2024-05-09T11:20:17.110Z,31.36
2024-05-09T11:22:49.180Z,31.74
2024-05-09T11:25:15.366Z,30.32
2024-05-09T11:27:41.840Z,30.42
2024-05-09T11:30:24.219Z,29.84
2024-05-09T11:32:58.068Z,27.71
2024-05-09T11:35:25.905Z,27.90
2024-05-09T11:37:51.958Z,28.39
2024-05-09T11:40:25.230Z,28.33
2024-05-09T11:42:54.560Z,28.76
2024-05-09T11:45:21.388Z,28.69
2024-05-09T11:50:22.389Z,28.47
2024-05-09T11:52:53.383Z,28.83
2024-05-09T11:55:19.765Z,28.85
2024-05-09T11:57:45.898Z,28.37
2024-05-09T12:00:18.194Z,29.63
2024-05-09T12:02:52.191Z,27.99
2024-05-09T12:05:18.495Z,28.28
2024-05-09T12:07:44.701Z,29.86
2024-05-09T12:10:16.577Z,29.45
2024-05-09T12:12:45.537Z,29.16
2024-05-09T12:15:11.968Z,28.18
2024-05-09T12:17:38.122Z,28.66
2024-05-09T12:20:09.027Z,28.91
2024-05-09T12:22:37.235Z,27.57
2024-05-09T12:25:04.316Z,28.00
2024-05-09T12:27:30.878Z,28.63
2024-05-09T12:29:56.978Z,28.67
2024-05-09T12:32:23.242Z,27.22
2024-05-09T12:34:49.339Z,26.75
2024-05-09T12:37:15.596Z,27.66
2024-05-09T12:39:41.719Z,26.63
2024-05-09T12:42:08.950Z,27.26
2024-05-09T12:44:35.863Z,27.30
2024-05-09T12:47:01.942Z,26.92
2024-05-09T12:49:28.317Z,28.24
2024-05-09T12:51:54.557Z,28.01
2024-05-09T12:54:20.681Z,27.12
2024-05-09T12:56:46.835Z,26.70
2024-05-09T12:59:12.863Z,28.19
2024-05-09T13:01:39.075Z,28.64
2024-05-09T13:04:05.377Z,27.71
2024-05-09T13:06:31.627Z,26.71
2024-05-09T13:08:57.791Z,27.98
2024-05-09T13:11:23.826Z,27.99
2024-05-09T13:13:49.993Z,28.06
2024-05-09T13:16:16.116Z,27.22
2024-05-09T13:18:43.685Z,27.94
2024-05-09T13:21:09.825Z,27.62
2024-05-09T13:23:39.210Z,27.72
2024-05-09T13:26:05.312Z,27.75
2024-05-09T13:28:32.981Z,28.26
2024-05-09T13:30:59.091Z,27.94
2024-05-09T13:33:25.266Z,27.75
2024-05-09T13:35:51.489Z,26.03
2024-05-09T13:38:19.516Z,25.98
2024-05-09T13:40:46.174Z,27.01
2024-05-09T13:43:12.734Z,27.92
2024-05-09T13:45:39.030Z,26.66
2024-05-09T13:48:06.115Z,25.99
2024-05-09T13:50:35.712Z,26.07
2024-05-09T13:53:07.867Z,26.21
2024-05-09T13:55:37.633Z,25.72
2024-05-09T13:58:04.178Z,24.97
2024-05-09T14:00:42.178Z,26.26
2024-05-09T14:03:13.914Z,25.12
2024-05-09T14:05:40.430Z,26.00
2024-05-09T14:08:08.022Z,25.63
2024-05-09T14:10:34.956Z,26.08
2024-05-09T14:13:01.376Z,25.88
2024-05-09T14:15:27.795Z,26.14
2024-05-09T14:17:54.687Z,26.03
2024-05-09T14:20:30.118Z,25.74
2024-05-09T14:22:58.566Z,25.37
2024-05-09T14:25:25.837Z,25.64
2024-05-09T14:27:51.962Z,25.46
2024-05-09T14:30:25.890Z,25.52
2024-05-09T14:32:59.844Z,24.62
2024-05-09T14:35:25.947Z,25.96
2024-05-09T14:37:52.023Z,25.50
2024-05-09T14:42:47.123Z,25.42
2024-05-09T14:45:13.239Z,24.96
2024-05-09T14:47:39.719Z,25.69
2024-05-09T14:50:07.075Z,25.29
2024-05-09T14:52:34.959Z,24.53
2024-05-09T14:55:01.294Z,24.62
2024-05-09T14:57:27.499Z,25.18
2024-05-09T14:59:53.533Z,24.78
2024-05-09T15:02:19.725Z,24.43
2024-05-09T15:04:46.095Z,24.82
2024-05-09T15:07:12.297Z,24.67
2024-05-09T15:09:38.422Z,24.19
2024-05-09T15:12:04.653Z,24.83
2024-05-09T15:14:30.702Z,24.63
2024-05-09T15:16:56.971Z,24.50
2024-05-09T15:19:23.169Z,24.54
2024-05-09T15:21:49.581Z,24.88
2024-05-09T15:24:15.657Z,25.17
2024-05-09T15:26:41.758Z,25.10
2024-05-09T15:29:07.821Z,25.17
2024-05-09T15:31:33.982Z,25.44
2024-05-09T15:34:00.383Z,25.82
2024-05-09T15:36:26.636Z,25.95
2024-05-09T15:38:54.990Z,25.29
2024-05-09T15:41:21.054Z,25.39
2024-05-09T15:43:47.113Z,24.71
2024-05-09T15:46:13.222Z,26.11
2024-05-09T15:48:44.342Z,25.68
2024-05-09T15:51:11.040Z,25.56
2024-05-09T15:53:37.102Z,26.08
2024-05-09T15:56:03.401Z,25.41
2024-05-09T15:58:29.584Z,25.47
2024-05-09T16:00:55.816Z,26.35
2024-05-09T16:03:22.008Z,25.77
2024-05-09T16:05:49.977Z,25.91
2024-05-09T16:08:16.245Z,25.83
2024-05-09T16:10:45.626Z,25.61
2024-05-09T16:13:12.660Z,25.94
2024-05-09T16:15:39.011Z,26.01
2024-05-09T16:18:05.474Z,26.29
2024-05-09T16:20:38.893Z,26.30
2024-05-09T16:23:07.932Z,26.68
2024-05-09T16:25:34.461Z,26.62
2024-05-09T16:28:00.961Z,26.92
2024-05-09T16:30:34.174Z,26.24
2024-05-09T16:33:03.056Z,26.15
2024-05-09T16:35:29.606Z,26.19
2024-05-09T16:37:55.760Z,26.44
2024-05-09T16:40:29.939Z,26.07
2024-05-09T16:43:03.440Z,26.41
2024-05-09T16:45:29.855Z,26.30
2024-05-09T16:47:56.315Z,26.30
2024-05-09T16:50:29.193Z,26.06
2024-05-09T16:52:58.780Z,26.27
2024-05-09T16:55:24.864Z,26.07
2024-05-09T16:57:51.458Z,25.69
2024-05-09T17:00:25.956Z,25.83
2024-05-09T17:03:01.531Z,26.12
2024-05-09T17:05:29.004Z,26.34
2024-05-09T17:07:55.638Z,27.38
2024-05-09T17:10:29.254Z,27.19
2024-05-09T17:12:58.810Z,27.73
2024-05-09T17:15:25.198Z,27.82
2024-05-09T17:17:51.311Z,27.63
2024-05-09T17:20:28.831Z,28.19
2024-05-09T17:22:59.394Z,27.46
2024-05-09T17:25:25.490Z,27.74
2024-05-09T17:27:51.730Z,28.54
2024-05-09T17:30:28.143Z,28.77
2024-05-09T17:32:58.960Z,28.55
2024-05-09T17:35:25.032Z,28.50
2024-05-09T17:37:51.182Z,28.46
2024-05-09T17:40:20.872Z,28.27
2024-05-09T17:42:53.863Z,28.62
2024-05-09T17:45:20.234Z,28.86
2024-05-09T17:47:47.034Z,29.98
2024-05-09T17:50:20.932Z,31.22
2024-05-09T17:52:53.123Z,32.46
2024-05-09T17:55:19.345Z,32.96
2024-05-09T17:57:45.596Z,33.98
2024-05-09T18:00:14.942Z,34.40
2024-05-09T18:02:43.647Z,34.94
2024-05-09T18:05:10.110Z,35.52
2024-05-09T18:07:36.185Z,35.79
2024-05-09T18:10:02.466Z,36.14
2024-05-09T18:12:28.732Z,36.66
2024-05-09T18:14:54.858Z,37.21
2024-05-09T18:17:23.583Z,37.67
2024-05-09T18:19:51.345Z,38.20
2024-05-09T18:22:17.521Z,38.04
2024-05-09T18:24:43.804Z,38.46
2024-05-09T18:27:10.196Z,38.81
2024-05-09T18:29:36.336Z,39.13
2024-05-09T18:32:02.444Z,39.13
2024-05-09T18:34:28.674Z,39.36
2024-05-09T18:36:54.901Z,39.82
2024-05-09T18:39:20.991Z,39.82
2024-05-09T18:41:47.035Z,39.88
2024-05-09T18:44:13.392Z,40.57
2024-05-09T18:46:39.508Z,41.70
2024-05-09T18:49:05.796Z,41.53
2024-05-09T18:51:32.031Z,41.86
2024-05-09T18:53:58.242Z,42.43
2024-05-09T18:56:24.318Z,42.75
2024-05-09T18:58:50.381Z,42.83
2024-05-09T19:01:16.604Z,42.93
2024-05-09T19:03:43.015Z,43.44
2024-05-09T19:06:09.415Z,43.75
2024-05-09T19:08:35.527Z,43.66
2024-05-09T19:11:01.642Z,44.47
2024-05-09T19:13:27.892Z,44.46
2024-05-09T19:15:54.063Z,44.57
2024-05-09T19:18:20.388Z,44.32
2024-05-09T19:20:46.590Z,44.62
2024-05-09T19:23:12.790Z,44.87
2024-05-09T19:25:38.950Z,45.05
2024-05-09T19:28:05.845Z,44.73
2024-05-09T19:30:38.876Z,44.83
2024-05-09T19:33:08.905Z,45.05
2024-05-09T19:35:35.482Z,45.44
2024-05-09T19:38:01.982Z,46.65
2024-05-09T19:40:31.812Z,46.55
2024-05-09T19:43:00.876Z,46.90
2024-05-09T19:45:27.217Z,46.86
2024-05-09T19:47:53.577Z,47.22
2024-05-09T19:50:26.992Z,47.71
2024-05-09T19:53:01.976Z,48.16
2024-05-09T19:55:28.080Z,48.50
2024-05-09T19:57:54.181Z,48.86
2024-05-09T20:00:26.523Z,48.94
2024-05-09T20:02:58.771Z,49.11
2024-05-09T20:05:25.033Z,49.48
2024-05-09T20:07:51.269Z,49.49
2024-05-09T20:10:23.734Z,49.29
2024-05-09T20:12:53.274Z,49.15
2024-05-09T20:15:19.357Z,49.55
2024-05-09T20:17:45.599Z,48.97
2024-05-09T20:20:20.301Z,49.09
2024-05-09T20:22:54.190Z,49.31
2024-05-09T20:25:20.260Z,50.09
2024-05-09T20:27:46.369Z,49.87
2024-05-09T20:30:17.049Z,50.68
2024-05-09T20:32:47.641Z,50.71
2024-05-09T20:35:13.959Z,50.92
2024-05-09T20:37:40.497Z,50.90
2024-05-09T20:40:12.016Z,51.39
2024-05-09T20:42:44.283Z,52.07
2024-05-09T20:45:10.356Z,52.13
2024-05-09T20:47:37.643Z,51.87
2024-05-09T20:50:09.061Z,51.47
2024-05-09T20:52:39.533Z,52.19
2024-05-09T20:55:05.961Z,52.51
2024-05-09T20:57:32.084Z,53.09
2024-05-09T20:59:58.184Z,52.90
2024-05-09T21:02:24.427Z,51.94
2024-05-09T21:04:50.997Z,51.36
2024-05-09T21:07:17.335Z,50.92
2024-05-09T21:09:43.521Z,50.71
2024-05-09T21:12:09.694Z,50.95
2024-05-09T21:14:35.958Z,50.92
2024-05-09T21:17:02.131Z,51.22
2024-05-09T21:19:28.256Z,51.46
2024-05-09T21:21:54.376Z,51.24
2024-05-09T21:24:20.487Z,51.66
2024-05-09T21:26:46.514Z,51.56
2024-05-09T21:29:12.570Z,51.53
2024-05-09T21:31:38.662Z,51.82
2024-05-09T21:34:04.884Z,52.38
2024-05-09T21:36:31.035Z,52.72
2024-05-09T21:38:57.071Z,53.43
2024-05-09T21:41:24.126Z,53.48
2024-05-09T21:43:50.179Z,53.27
2024-05-09T21:46:16.310Z,53.50
2024-05-09T21:48:42.547Z,53.62
2024-05-09T21:51:15.391Z,53.33
2024-05-09T21:53:41.552Z,53.21
2024-05-09T21:56:07.808Z,52.57
2024-05-09T21:58:33.887Z,51.89
2024-05-09T22:00:59.982Z,51.81
2024-05-09T22:03:26.256Z,52.12
2024-05-09T22:05:52.442Z,52.18
2024-05-09T22:08:18.526Z,52.09
2024-05-09T22:10:44.676Z,52.44
2024-05-09T22:13:10.874Z,52.55
2024-05-09T22:15:39.328Z,52.56
2024-05-09T22:18:06.959Z,52.39
2024-05-09T22:20:37.402Z,52.56
2024-05-09T22:23:05.508Z,52.78
2024-05-09T22:25:32.500Z,53.19
2024-05-09T22:28:00.142Z,53.74
2024-05-09T22:30:34.616Z,54.25
2024-05-09T22:33:05.089Z,54.87
2024-05-09T22:35:31.398Z,55.17
2024-05-09T22:37:57.456Z,55.26
2024-05-09T22:40:33.218Z,55.36
2024-05-09T22:43:09.111Z,56.17
2024-05-09T22:45:35.332Z,56.22
2024-05-09T22:48:01.631Z,56.37
2024-05-09T22:50:32.863Z,56.57
2024-05-09T22:52:59.686Z,56.91
2024-05-09T22:55:25.720Z,57.25
2024-05-09T22:57:51.862Z,57.10
2024-05-09T23:00:21.762Z,57.59
2024-05-09T23:02:52.245Z,58.23
2024-05-09T23:05:18.423Z,57.74
2024-05-09T23:07:44.496Z,58.19
2024-05-09T23:10:17.124Z,58.42
2024-05-09T23:12:47.674Z,58.88
2024-05-09T23:15:13.772Z,58.58
2024-05-09T23:17:39.936Z,58.83
2024-05-09T23:20:08.880Z,58.98
2024-05-09T23:22:37.251Z,59.02
2024-05-09T23:25:03.502Z,58.92
2024-05-09T23:27:29.573Z,59.46
2024-05-09T23:29:55.638Z,59.56
2024-05-09T23:32:21.840Z,59.54
2024-05-09T23:34:48.192Z,59.67
2024-05-09T23:37:14.513Z,59.57
2024-05-09T23:39:40.606Z,59.92
2024-05-09T23:42:06.888Z,59.99
2024-05-09T23:44:32.955Z,59.52
2024-05-09T23:46:59.157Z,59.58
2024-05-09T23:49:25.259Z,59.88
2024-05-09T23:51:51.330Z,59.87
2024-05-09T23:54:17.385Z,60.04
2024-05-09T23:56:43.438Z,59.97
2024-05-09T23:59:09.485Z,59.29
